sensor_id;sensor_type;location;lat;lon;timestamp;pressure;altitude;pressure_sealevel;temperature;humidity
68634;BME280;55625;47.072;22.192;2023-02-21T00:01:57;99630.78;;;7.46;78.78
68634;BME280;55625;47.072;22.192;2023-02-21T00:04:41;99631.66;;;7.43;78.60
68634;BME280;55625;47.072;22.192;2023-02-21T00:07:26;99623.97;;;7.24;80.11
68634;BME280;55625;47.072;22.192;2023-02-21T00:10:14;99619.84;;;7.08;80.99
68634;BME280;55625;47.072;22.192;2023-02-21T00:12:59;99616.22;;;7.08;80.07
68634;BME280;55625;47.072;22.192;2023-02-21T00:15:43;99616.47;;;6.94;81.37
68634;BME280;55625;47.072;22.192;2023-02-21T00:18:33;99616.91;;;6.92;81.16
68634;BME280;55625;47.072;22.192;2023-02-21T00:21:18;99615.03;;;6.85;81.57
68634;BME280;55625;47.072;22.192;2023-02-21T00:24:03;99616.81;;;6.76;81.80
68634;BME280;55625;47.072;22.192;2023-02-21T00:26:47;99612.72;;;6.80;82.12
68634;BME280;55625;47.072;22.192;2023-02-21T00:29:32;99611.06;;;6.60;81.91
68634;BME280;55625;47.072;22.192;2023-02-21T00:32:17;99609.09;;;6.80;82.09
68634;BME280;55625;47.072;22.192;2023-02-21T00:35:01;99606.38;;;6.73;82.81
68634;BME280;55625;47.072;22.192;2023-02-21T00:37:50;99611.53;;;6.78;82.07
68634;BME280;55625;47.072;22.192;2023-02-21T00:40:35;99602.81;;;6.69;82.52
68634;BME280;55625;47.072;22.192;2023-02-21T00:43:29;99598.34;;;6.71;82.23
68634;BME280;55625;47.072;22.192;2023-02-21T00:46:14;99604.19;;;6.61;82.99
68634;BME280;55625;47.072;22.192;2023-02-21T00:48:58;99605.19;;;6.50;83.08
68634;BME280;55625;47.072;22.192;2023-02-21T00:51:43;99598.53;;;6.37;84.37
68634;BME280;55625;47.072;22.192;2023-02-21T00:54:27;99602.00;;;6.48;83.04
68634;BME280;55625;47.072;22.192;2023-02-21T00:57:13;99601.91;;;6.29;84.02
68634;BME280;55625;47.072;22.192;2023-02-21T00:59:57;99605.91;;;6.04;85.97
68634;BME280;55625;47.072;22.192;2023-02-21T01:02:42;99606.72;;;6.05;86.21
68634;BME280;55625;47.072;22.192;2023-02-21T01:05:26;99606.72;;;6.05;85.69
68634;BME280;55625;47.072;22.192;2023-02-21T01:08:11;99603.66;;;5.96;86.01
68634;BME280;55625;47.072;22.192;2023-02-21T01:10:56;99609.16;;;6.03;85.91
68634;BME280;55625;47.072;22.192;2023-02-21T01:13:41;99591.78;;;6.08;86.27
68634;BME280;55625;47.072;22.192;2023-02-21T01:16:31;99597.59;;;5.97;85.92
68634;BME280;55625;47.072;22.192;2023-02-21T01:19:16;99601.59;;;6.23;85.21
68634;BME280;55625;47.072;22.192;2023-02-21T01:22:03;99590.22;;;6.53;84.91
68634;BME280;55625;47.072;22.192;2023-02-21T01:24:51;99602.78;;;6.49;83.80
68634;BME280;55625;47.072;22.192;2023-02-21T01:27:35;99605.06;;;6.58;84.47
68634;BME280;55625;47.072;22.192;2023-02-21T01:30:20;99600.88;;;6.42;83.74
68634;BME280;55625;47.072;22.192;2023-02-21T01:33:05;99600.50;;;6.40;83.25
68634;BME280;55625;47.072;22.192;2023-02-21T01:35:49;99592.03;;;6.40;83.69
68634;BME280;55625;47.072;22.192;2023-02-21T01:38:34;99593.53;;;6.48;83.73
68634;BME280;55625;47.072;22.192;2023-02-21T01:41:20;99586.84;;;6.39;84.14
68634;BME280;55625;47.072;22.192;2023-02-21T01:44:36;99590.81;;;6.41;83.78
68634;BME280;55625;47.072;22.192;2023-02-21T01:47:21;99587.16;;;6.21;84.19
68634;BME280;55625;47.072;22.192;2023-02-21T01:50:25;99582.50;;;6.34;84.50
68634;BME280;55625;47.072;22.192;2023-02-21T01:53:20;99575.31;;;6.30;84.66
68634;BME280;55625;47.072;22.192;2023-02-21T01:56:06;99574.22;;;6.23;84.32
68634;BME280;55625;47.072;22.192;2023-02-21T01:58:54;99565.00;;;5.96;85.93
68634;BME280;55625;47.072;22.192;2023-02-21T02:01:57;99548.91;;;5.97;85.66
68634;BME280;55625;47.072;22.192;2023-02-21T02:04:43;99549.94;;;5.79;86.46
68634;BME280;55625;47.072;22.192;2023-02-21T02:07:29;99555.91;;;5.58;87.66
68634;BME280;55625;47.072;22.192;2023-02-21T02:10:14;99545.56;;;5.48;87.94
68634;BME280;55625;47.072;22.192;2023-02-21T02:31:44;99548.00;;;5.46;88.43
68634;BME280;55625;47.072;22.192;2023-02-21T02:39:50;99542.03;;;5.13;89.09
68634;BME280;55625;47.072;22.192;2023-02-21T02:42:59;99538.03;;;5.11;89.68
68634;BME280;55625;47.072;22.192;2023-02-21T02:48:45;99534.31;;;5.17;89.06
68634;BME280;55625;47.072;22.192;2023-02-21T02:51:13;99536.41;;;5.13;89.48
68634;BME280;55625;47.072;22.192;2023-02-21T02:53:40;99534.84;;;5.09;89.33
68634;BME280;55625;47.072;22.192;2023-02-21T02:56:13;99531.84;;;4.92;90.19
68634;BME280;55625;47.072;22.192;2023-02-21T03:21:24;99520.09;;;4.67;92.27
68634;BME280;55625;47.072;22.192;2023-02-21T03:23:55;99516.22;;;4.54;92.34
68634;BME280;55625;47.072;22.192;2023-02-21T03:26:23;99516.75;;;4.42;92.89
68634;BME280;55625;47.072;22.192;2023-02-21T03:28:51;99526.38;;;4.41;92.80
68634;BME280;55625;47.072;22.192;2023-02-21T03:31:23;99532.44;;;4.39;92.54
68634;BME280;55625;47.072;22.192;2023-02-21T03:33:51;99524.03;;;4.35;92.83
68634;BME280;55625;47.072;22.192;2023-02-21T03:36:17;99513.19;;;4.38;93.21
68634;BME280;55625;47.072;22.192;2023-02-21T03:38:43;99516.06;;;4.30;93.55
68634;BME280;55625;47.072;22.192;2023-02-21T03:41:09;99517.28;;;4.26;93.71
68634;BME280;55625;47.072;22.192;2023-02-21T03:43:36;99520.09;;;4.26;93.90
68634;BME280;55625;47.072;22.192;2023-02-21T03:46:02;99527.72;;;4.29;93.64
68634;BME280;55625;47.072;22.192;2023-02-21T03:48:28;99519.31;;;4.25;93.69
68634;BME280;55625;47.072;22.192;2023-02-21T03:50:54;99529.66;;;4.35;93.21
68634;BME280;55625;47.072;22.192;2023-02-21T03:53:19;99520.06;;;4.33;93.57
68634;BME280;55625;47.072;22.192;2023-02-21T03:55:45;99512.06;;;4.28;93.48
68634;BME280;55625;47.072;22.192;2023-02-21T03:58:11;99514.47;;;4.26;93.83
68634;BME280;55625;47.072;22.192;2023-02-21T04:00:37;99523.66;;;4.33;93.33
68634;BME280;55625;47.072;22.192;2023-02-21T04:03:03;99510.00;;;4.35;93.37
68634;BME280;55625;47.072;22.192;2023-02-21T04:05:29;99512.97;;;4.55;92.95
68634;BME280;55625;47.072;22.192;2023-02-21T04:07:54;99498.81;;;4.66;92.27
68634;BME280;55625;47.072;22.192;2023-02-21T04:10:20;99500.13;;;4.92;91.44
68634;BME280;55625;47.072;22.192;2023-02-21T04:12:46;99489.00;;;5.12;90.19
68634;BME280;55625;47.072;22.192;2023-02-21T04:15:12;99474.47;;;5.17;89.55
68634;BME280;55625;47.072;22.192;2023-02-21T04:17:38;99474.03;;;5.18;89.62
68634;BME280;55625;47.072;22.192;2023-02-21T04:20:04;99477.78;;;5.39;88.63
68634;BME280;55625;47.072;22.192;2023-02-21T04:22:30;99474.47;;;5.44;87.74
68634;BME280;55625;47.072;22.192;2023-02-21T04:24:56;99475.25;;;5.71;87.33
68634;BME280;55625;47.072;22.192;2023-02-21T04:27:21;99471.00;;;5.86;85.90
68634;BME280;55625;47.072;22.192;2023-02-21T04:29:47;99462.81;;;5.96;85.70
68634;BME280;55625;47.072;22.192;2023-02-21T04:32:13;99466.66;;;6.05;84.61
68634;BME280;55625;47.072;22.192;2023-02-21T04:34:39;99471.50;;;6.05;84.86
68634;BME280;55625;47.072;22.192;2023-02-21T04:37:05;99461.97;;;5.99;84.89
68634;BME280;55625;47.072;22.192;2023-02-21T04:39:31;99459.38;;;5.84;85.67
68634;BME280;55625;47.072;22.192;2023-02-21T04:41:57;99475.91;;;5.82;85.46
68634;BME280;55625;47.072;22.192;2023-02-21T04:44:22;99471.75;;;5.90;84.61
68634;BME280;55625;47.072;22.192;2023-02-21T04:46:48;99470.78;;;6.01;84.64
68634;BME280;55625;47.072;22.192;2023-02-21T04:49:14;99464.03;;;6.18;83.39
68634;BME280;55625;47.072;22.192;2023-02-21T04:51:40;99471.84;;;6.30;83.87
68634;BME280;55625;47.072;22.192;2023-02-21T04:54:06;99467.38;;;6.33;82.76
68634;BME280;55625;47.072;22.192;2023-02-21T04:56:32;99475.59;;;6.23;83.34
68634;BME280;55625;47.072;22.192;2023-02-21T04:58:58;99477.75;;;6.16;82.95
68634;BME280;55625;47.072;22.192;2023-02-21T05:01:28;99466.13;;;6.14;83.49
68634;BME280;55625;47.072;22.192;2023-02-21T05:03:56;99470.03;;;5.97;83.79
68634;BME280;55625;47.072;22.192;2023-02-21T05:06:25;99467.97;;;6.01;84.30
68634;BME280;55625;47.072;22.192;2023-02-21T05:08:51;99468.53;;;5.92;84.44
68634;BME280;55625;47.072;22.192;2023-02-21T05:11:19;99465.19;;;5.97;83.37
68634;BME280;55625;47.072;22.192;2023-02-21T05:13:46;99462.47;;;5.94;84.33
68634;BME280;55625;47.072;22.192;2023-02-21T05:16:12;99466.94;;;5.91;84.68
68634;BME280;55625;47.072;22.192;2023-02-21T05:18:40;99457.78;;;5.83;84.62
68634;BME280;55625;47.072;22.192;2023-02-21T05:21:06;99454.25;;;5.76;84.99
68634;BME280;55625;47.072;22.192;2023-02-21T05:23:33;99462.19;;;5.84;84.36
68634;BME280;55625;47.072;22.192;2023-02-21T05:26:07;99459.03;;;5.79;84.48
68634;BME280;55625;47.072;22.192;2023-02-21T05:28:34;99462.66;;;5.79;85.23
68634;BME280;55625;47.072;22.192;2023-02-21T05:31:00;99465.78;;;5.85;85.03
68634;BME280;55625;47.072;22.192;2023-02-21T05:33:26;99469.63;;;5.71;85.32
68634;BME280;55625;47.072;22.192;2023-02-21T05:35:52;99477.72;;;5.69;85.42
68634;BME280;55625;47.072;22.192;2023-02-21T05:38:20;99473.78;;;5.63;85.33
68634;BME280;55625;47.072;22.192;2023-02-21T05:40:46;99460.03;;;5.69;85.81
68634;BME280;55625;47.072;22.192;2023-02-21T05:43:13;99460.38;;;5.71;85.08
68634;BME280;55625;47.072;22.192;2023-02-21T05:45:40;99468.91;;;5.67;85.82
68634;BME280;55625;47.072;22.192;2023-02-21T05:48:06;99468.03;;;5.70;85.70
68634;BME280;55625;47.072;22.192;2023-02-21T05:50:32;99480.03;;;5.74;84.93
68634;BME280;55625;47.072;22.192;2023-02-21T05:52:59;99476.13;;;5.68;85.71
68634;BME280;55625;47.072;22.192;2023-02-21T05:55:25;99467.03;;;5.84;85.12
68634;BME280;55625;47.072;22.192;2023-02-21T05:57:52;99462.97;;;5.85;84.97
68634;BME280;55625;47.072;22.192;2023-02-21T06:00:22;99461.50;;;5.77;85.43
68634;BME280;55625;47.072;22.192;2023-02-21T06:02:49;99465.28;;;5.94;85.50
68634;BME280;55625;47.072;22.192;2023-02-21T06:05:17;99460.97;;;6.09;84.70
68634;BME280;55625;47.072;22.192;2023-02-21T06:07:44;99469.69;;;6.18;84.58
68634;BME280;55625;47.072;22.192;2023-02-21T06:10:10;99470.19;;;6.33;83.08
68634;BME280;55625;47.072;22.192;2023-02-21T06:12:36;99467.25;;;6.40;83.26
68634;BME280;55625;47.072;22.192;2023-02-21T06:15:03;99453.97;;;6.60;82.44
68634;BME280;55625;47.072;22.192;2023-02-21T06:17:33;99472.47;;;6.81;82.08
68634;BME280;55625;47.072;22.192;2023-02-21T06:20:00;99464.22;;;6.90;81.82
68634;BME280;55625;47.072;22.192;2023-02-21T06:22:26;99473.59;;;7.03;81.27
68634;BME280;55625;47.072;22.192;2023-02-21T06:24:52;99470.41;;;7.21;80.55
68634;BME280;55625;47.072;22.192;2023-02-21T06:27:18;99474.22;;;7.31;80.17
68634;BME280;55625;47.072;22.192;2023-02-21T06:29:44;99480.88;;;7.40;79.18
68634;BME280;55625;47.072;22.192;2023-02-21T06:32:10;99475.41;;;7.50;78.82
68634;BME280;55625;47.072;22.192;2023-02-21T06:34:36;99481.69;;;7.57;78.85
68634;BME280;55625;47.072;22.192;2023-02-21T06:37:02;99478.63;;;7.68;78.12
68634;BME280;55625;47.072;22.192;2023-02-21T06:39:28;99473.69;;;7.72;77.90
68634;BME280;55625;47.072;22.192;2023-02-21T06:41:54;99472.88;;;7.88;77.43
68634;BME280;55625;47.072;22.192;2023-02-21T06:44:20;99477.84;;;8.00;77.72
68634;BME280;55625;47.072;22.192;2023-02-21T06:46:47;99466.94;;;8.15;77.30
68634;BME280;55625;47.072;22.192;2023-02-21T06:49:15;99468.25;;;8.26;76.52
68634;BME280;55625;47.072;22.192;2023-02-21T06:51:41;99468.59;;;8.45;76.18
68634;BME280;55625;47.072;22.192;2023-02-21T06:54:08;99465.19;;;8.66;74.48
68634;BME280;55625;47.072;22.192;2023-02-21T06:56:35;99452.63;;;8.67;74.33
68634;BME280;55625;47.072;22.192;2023-02-21T06:59:01;99467.03;;;8.73;74.58
68634;BME280;55625;47.072;22.192;2023-02-21T07:01:28;99470.66;;;8.86;74.25
68634;BME280;55625;47.072;22.192;2023-02-21T07:03:56;99464.72;;;8.96;74.05
68634;BME280;55625;47.072;22.192;2023-02-21T07:06:23;99470.53;;;9.18;74.08
68634;BME280;55625;47.072;22.192;2023-02-21T07:08:49;99462.63;;;9.39;72.96
68634;BME280;55625;47.072;22.192;2023-02-21T07:11:17;99465.69;;;9.31;73.03
68634;BME280;55625;47.072;22.192;2023-02-21T07:13:52;99451.38;;;9.10;72.66
68634;BME280;55625;47.072;22.192;2023-02-21T07:16:19;99475.72;;;9.07;73.66
68634;BME280;55625;47.072;22.192;2023-02-21T07:18:46;99495.34;;;9.27;74.00
68634;BME280;55625;47.072;22.192;2023-02-21T07:21:14;99506.06;;;9.07;73.35
68634;BME280;55625;47.072;22.192;2023-02-21T07:23:43;99499.16;;;9.08;74.77
68634;BME280;55625;47.072;22.192;2023-02-21T07:26:09;99502.78;;;9.08;74.09
68634;BME280;55625;47.072;22.192;2023-02-21T07:28:35;99512.06;;;9.09;74.53
68634;BME280;55625;47.072;22.192;2023-02-21T07:31:01;99500.53;;;9.16;74.36
68634;BME280;55625;47.072;22.192;2023-02-21T07:33:27;99517.69;;;9.38;72.68
68634;BME280;55625;47.072;22.192;2023-02-21T07:35:53;99514.41;;;9.39;73.17
68634;BME280;55625;47.072;22.192;2023-02-21T07:38:21;99495.84;;;9.51;72.25
68634;BME280;55625;47.072;22.192;2023-02-21T07:40:47;99495.72;;;9.54;72.29
68634;BME280;55625;47.072;22.192;2023-02-21T07:43:13;99499.59;;;9.60;72.98
68634;BME280;55625;47.072;22.192;2023-02-21T07:45:39;99505.25;;;9.60;72.82
68634;BME280;55625;47.072;22.192;2023-02-21T07:48:05;99518.06;;;9.90;72.12
68634;BME280;55625;47.072;22.192;2023-02-21T07:50:31;99515.78;;;9.98;71.69
68634;BME280;55625;47.072;22.192;2023-02-21T07:52:57;99515.22;;;10.03;70.35
68634;BME280;55625;47.072;22.192;2023-02-21T07:55:25;99518.03;;;10.03;70.21
68634;BME280;55625;47.072;22.192;2023-02-21T07:57:51;99518.84;;;9.91;71.35
68634;BME280;55625;47.072;22.192;2023-02-21T08:00:17;99527.13;;;9.98;71.35
68634;BME280;55625;47.072;22.192;2023-02-21T08:02:47;99519.41;;;10.11;71.39
68634;BME280;55625;47.072;22.192;2023-02-21T08:05:15;99522.53;;;10.51;71.26
68634;BME280;55625;47.072;22.192;2023-02-21T08:07:41;99519.88;;;10.92;69.04
68634;BME280;55625;47.072;22.192;2023-02-21T08:10:08;99515.19;;;10.98;68.38
68634;BME280;55625;47.072;22.192;2023-02-21T08:12:34;99512.44;;;11.07;68.31
68634;BME280;55625;47.072;22.192;2023-02-21T08:15:00;99515.31;;;11.38;67.44
68634;BME280;55625;47.072;22.192;2023-02-21T08:17:26;99513.44;;;11.66;67.39
68634;BME280;55625;47.072;22.192;2023-02-21T08:19:52;99506.63;;;11.94;64.19
68634;BME280;55625;47.072;22.192;2023-02-21T08:22:18;99512.59;;;12.27;64.36
68634;BME280;55625;47.072;22.192;2023-02-21T08:24:44;99505.78;;;12.25;63.12
68634;BME280;55625;47.072;22.192;2023-02-21T08:27:11;99501.13;;;12.09;63.32
68634;BME280;55625;47.072;22.192;2023-02-21T08:29:36;99492.78;;;12.24;63.77
68634;BME280;55625;47.072;22.192;2023-02-21T08:32:03;99500.44;;;12.45;63.50
68634;BME280;55625;47.072;22.192;2023-02-21T08:34:28;99499.50;;;12.66;62.28
68634;BME280;55625;47.072;22.192;2023-02-21T08:36:54;99498.41;;;12.64;61.79
68634;BME280;55625;47.072;22.192;2023-02-21T08:39:20;99494.13;;;12.59;61.18
68634;BME280;55625;47.072;22.192;2023-02-21T08:41:46;99491.75;;;12.67;61.70
68634;BME280;55625;47.072;22.192;2023-02-21T08:44:15;99488.28;;;12.72;62.99
68634;BME280;55625;47.072;22.192;2023-02-21T08:46:42;99501.72;;;12.81;62.14
68634;BME280;55625;47.072;22.192;2023-02-21T08:49:08;99496.97;;;12.78;61.09
68634;BME280;55625;47.072;22.192;2023-02-21T08:51:35;99492.88;;;12.60;62.26
68634;BME280;55625;47.072;22.192;2023-02-21T08:54:02;99486.34;;;12.51;63.15
68634;BME280;55625;47.072;22.192;2023-02-21T08:56:28;99474.84;;;12.63;64.76
68634;BME280;55625;47.072;22.192;2023-02-21T08:58:55;99484.16;;;12.64;63.70
68634;BME280;55625;47.072;22.192;2023-02-21T09:01:23;99489.38;;;13.02;62.65
68634;BME280;55625;47.072;22.192;2023-02-21T09:03:49;99488.44;;;13.23;63.14
68634;BME280;55625;47.072;22.192;2023-02-21T09:06:16;99498.38;;;13.37;62.33
68634;BME280;55625;47.072;22.192;2023-02-21T09:08:42;99495.22;;;13.35;62.60
68634;BME280;55625;47.072;22.192;2023-02-21T09:11:08;99500.75;;;13.48;61.50
68634;BME280;55625;47.072;22.192;2023-02-21T09:13:34;99493.69;;;13.67;61.70
68634;BME280;55625;47.072;22.192;2023-02-21T09:16:02;99496.53;;;13.67;60.46
68634;BME280;55625;47.072;22.192;2023-02-21T09:18:29;99481.94;;;13.74;60.46
68634;BME280;55625;47.072;22.192;2023-02-21T09:20:55;99488.91;;;13.82;60.73
68634;BME280;55625;47.072;22.192;2023-02-21T09:23:24;99488.53;;;13.89;59.73
68634;BME280;55625;47.072;22.192;2023-02-21T09:25:51;99479.75;;;14.02;61.12
68634;BME280;55625;47.072;22.192;2023-02-21T09:28:18;99478.75;;;14.14;59.41
68634;BME280;55625;47.072;22.192;2023-02-21T09:30:45;99481.06;;;14.25;59.43
68634;BME280;55625;47.072;22.192;2023-02-21T09:33:11;99478.44;;;14.36;60.30
68634;BME280;55625;47.072;22.192;2023-02-21T09:35:38;99474.47;;;14.43;59.88
68634;BME280;55625;47.072;22.192;2023-02-21T09:38:05;99477.66;;;14.36;58.47
68634;BME280;55625;47.072;22.192;2023-02-21T09:40:48;99479.63;;;14.53;59.54
68634;BME280;55625;47.072;22.192;2023-02-21T09:43:42;99468.81;;;14.57;60.21
68634;BME280;55625;47.072;22.192;2023-02-21T09:48:53;99471.13;;;14.44;58.60
68634;BME280;55625;47.072;22.192;2023-02-21T09:51:19;99474.97;;;14.32;58.86
68634;BME280;55625;47.072;22.192;2023-02-21T09:53:47;99474.91;;;14.50;59.16
68634;BME280;55625;47.072;22.192;2023-02-21T09:56:28;99465.16;;;14.57;59.95
68634;BME280;55625;47.072;22.192;2023-02-21T09:58:55;99475.00;;;14.80;59.46
68634;BME280;55625;47.072;22.192;2023-02-21T10:10:30;99482.34;;;15.40;56.30
68634;BME280;55625;47.072;22.192;2023-02-21T10:13:37;99469.53;;;15.20;57.07
68634;BME280;55625;47.072;22.192;2023-02-21T10:16:16;99469.63;;;15.41;56.07
68634;BME280;55625;47.072;22.192;2023-02-21T10:19:16;99472.19;;;15.39;56.20
68634;BME280;55625;47.072;22.192;2023-02-21T10:21:48;99448.81;;;15.55;56.07
68634;BME280;55625;47.072;22.192;2023-02-21T10:24:24;99458.38;;;15.52;57.30
68634;BME280;55625;47.072;22.192;2023-02-21T10:27:06;99460.53;;;15.57;56.43
68634;BME280;55625;47.072;22.192;2023-02-21T10:30:09;99462.84;;;15.68;56.06
68634;BME280;55625;47.072;22.192;2023-02-21T10:32:37;99448.41;;;15.77;56.22
68634;BME280;55625;47.072;22.192;2023-02-21T10:35:04;99461.44;;;15.78;55.49
68634;BME280;55625;47.072;22.192;2023-02-21T10:37:45;99463.88;;;15.85;56.57
68634;BME280;55625;47.072;22.192;2023-02-21T10:40:39;99458.28;;;16.11;55.57
68634;BME280;55625;47.072;22.192;2023-02-21T10:46:07;99467.19;;;16.13;54.73
68634;BME280;55625;47.072;22.192;2023-02-21T10:48:38;99468.78;;;16.34;55.12
68634;BME280;55625;47.072;22.192;2023-02-21T10:51:28;99460.16;;;16.14;54.87
68634;BME280;55625;47.072;22.192;2023-02-21T10:54:24;99468.06;;;15.69;54.90
68634;BME280;55625;47.072;22.192;2023-02-21T10:56:52;99459.50;;;15.69;56.65
68634;BME280;55625;47.072;22.192;2023-02-21T10:59:30;99447.84;;;15.58;56.18
68634;BME280;55625;47.072;22.192;2023-02-21T11:01:57;99437.59;;;15.66;56.17
68634;BME280;55625;47.072;22.192;2023-02-21T11:04:32;99421.31;;;15.72;55.84
68634;BME280;55625;47.072;22.192;2023-02-21T11:07:10;99417.03;;;15.82;56.44
68634;BME280;55625;47.072;22.192;2023-02-21T11:09:44;99408.63;;;15.94;57.39
68634;BME280;55625;47.072;22.192;2023-02-21T11:12:24;99410.19;;;15.95;55.55
68634;BME280;55625;47.072;22.192;2023-02-21T11:17:23;99395.66;;;16.19;56.47
68634;BME280;55625;47.072;22.192;2023-02-21T11:20:02;99393.31;;;16.17;53.96
68634;BME280;55625;47.072;22.192;2023-02-21T11:22:42;99383.94;;;16.17;55.29
68634;BME280;55625;47.072;22.192;2023-02-21T11:25:40;99385.78;;;16.20;55.31
68634;BME280;55625;47.072;22.192;2023-02-21T11:28:20;99374.56;;;16.16;55.38
68634;BME280;55625;47.072;22.192;2023-02-21T11:31:10;99388.59;;;16.14;55.37
68634;BME280;55625;47.072;22.192;2023-02-21T11:33:55;99389.59;;;16.31;55.87
68634;BME280;55625;47.072;22.192;2023-02-21T11:36:31;99388.44;;;16.43;55.06
68634;BME280;55625;47.072;22.192;2023-02-21T11:39:32;99379.91;;;16.49;54.62
68634;BME280;55625;47.072;22.192;2023-02-21T11:42:04;99361.66;;;16.46;53.45
68634;BME280;55625;47.072;22.192;2023-02-21T11:44:49;99357.81;;;16.29;54.16
68634;BME280;55625;47.072;22.192;2023-02-21T11:47:36;99339.19;;;16.19;55.63
68634;BME280;55625;47.072;22.192;2023-02-21T11:50:39;99347.50;;;16.37;56.18
68634;BME280;55625;47.072;22.192;2023-02-21T11:53:33;99355.66;;;16.44;54.60
68634;BME280;55625;47.072;22.192;2023-02-21T11:56:33;99373.13;;;16.46;55.03
68634;BME280;55625;47.072;22.192;2023-02-21T12:23:34;99352.50;;;16.22;55.59
68634;BME280;55625;47.072;22.192;2023-02-21T12:32:14;99341.94;;;16.08;55.07
68634;BME280;55625;47.072;22.192;2023-02-21T12:47:31;99333.50;;;16.45;53.44
68634;BME280;55625;47.072;22.192;2023-02-21T12:50:24;99341.13;;;16.28;53.84
68634;BME280;55625;47.072;22.192;2023-02-21T12:53:15;99336.72;;;16.53;54.70
68634;BME280;55625;47.072;22.192;2023-02-21T12:55:50;99322.94;;;16.77;54.61
68634;BME280;55625;47.072;22.192;2023-02-21T12:58:44;99333.97;;;16.84;54.10
68634;BME280;55625;47.072;22.192;2023-02-21T13:01:21;99330.91;;;16.93;53.00
68634;BME280;55625;47.072;22.192;2023-02-21T13:04:17;99333.78;;;16.67;52.05
68634;BME280;55625;47.072;22.192;2023-02-21T13:10:24;99328.41;;;16.29;53.16
68634;BME280;55625;47.072;22.192;2023-02-21T13:13:12;99323.69;;;16.26;52.53
68634;BME280;55625;47.072;22.192;2023-02-21T13:15:42;99325.75;;;16.05;52.27
68634;BME280;55625;47.072;22.192;2023-02-21T13:24:12;99319.44;;;15.80;55.25
68634;BME280;55625;47.072;22.192;2023-02-21T13:29:41;99335.47;;;15.72;54.96
68634;BME280;55625;47.072;22.192;2023-02-21T13:32:13;99326.09;;;15.72;54.31
68634;BME280;55625;47.072;22.192;2023-02-21T13:34:55;99324.44;;;15.86;54.14
68634;BME280;55625;47.072;22.192;2023-02-21T13:37:30;99325.88;;;15.75;53.69
68634;BME280;55625;47.072;22.192;2023-02-21T13:40:14;99329.16;;;15.68;53.13
68634;BME280;55625;47.072;22.192;2023-02-21T13:42:43;99326.94;;;15.43;54.03
68634;BME280;55625;47.072;22.192;2023-02-21T13:45:22;99317.28;;;15.40;54.62
68634;BME280;55625;47.072;22.192;2023-02-21T13:55:38;99319.13;;;15.08;55.16
68634;BME280;55625;47.072;22.192;2023-02-21T14:10:54;99325.84;;;14.76;56.69
68634;BME280;55625;47.072;22.192;2023-02-21T14:18:48;99328.28;;;14.98;56.51
68634;BME280;55625;47.072;22.192;2023-02-21T14:21:44;99334.13;;;15.03;56.12
68634;BME280;55625;47.072;22.192;2023-02-21T14:49:18;99327.50;;;14.68;57.38
68634;BME280;55625;47.072;22.192;2023-02-21T15:03:23;99334.41;;;13.98;59.96
68634;BME280;55625;47.072;22.192;2023-02-21T15:08:27;99337.53;;;13.86;60.45
68634;BME280;55625;47.072;22.192;2023-02-21T15:10:59;99334.13;;;13.96;60.43
68634;BME280;55625;47.072;22.192;2023-02-21T15:13:33;99343.59;;;14.03;59.84
68634;BME280;55625;47.072;22.192;2023-02-21T15:16:12;99336.91;;;14.06;60.00
68634;BME280;55625;47.072;22.192;2023-02-21T15:18:56;99346.56;;;14.08;60.20
68634;BME280;55625;47.072;22.192;2023-02-21T15:21:22;99347.16;;;14.12;60.48
68634;BME280;55625;47.072;22.192;2023-02-21T15:24:01;99351.94;;;14.06;60.91
68634;BME280;55625;47.072;22.192;2023-02-21T15:26:30;99362.84;;;14.17;60.48
68634;BME280;55625;47.072;22.192;2023-02-21T15:29:11;99365.44;;;14.06;61.12
68634;BME280;55625;47.072;22.192;2023-02-21T15:31:53;99361.44;;;13.88;61.35
68634;BME280;55625;47.072;22.192;2023-02-21T15:34:26;99364.00;;;13.86;62.33
68634;BME280;55625;47.072;22.192;2023-02-21T15:37:27;99371.94;;;13.82;62.09
68634;BME280;55625;47.072;22.192;2023-02-21T15:40:23;99365.72;;;13.60;63.22
68634;BME280;55625;47.072;22.192;2023-02-21T15:42:51;99364.81;;;13.54;63.10
68634;BME280;55625;47.072;22.192;2023-02-21T15:45:28;99367.66;;;13.54;63.33
68634;BME280;55625;47.072;22.192;2023-02-21T15:47:56;99376.53;;;13.56;63.98
68634;BME280;55625;47.072;22.192;2023-02-21T15:50:38;99378.47;;;13.41;63.89
68634;BME280;55625;47.072;22.192;2023-02-21T15:53:14;99373.78;;;13.28;64.21
68634;BME280;55625;47.072;22.192;2023-02-21T15:55:42;99374.09;;;13.30;64.49
68634;BME280;55625;47.072;22.192;2023-02-21T15:58:25;99385.50;;;13.12;65.12
68634;BME280;55625;47.072;22.192;2023-02-21T16:01:08;99383.03;;;12.96;65.15
68634;BME280;55625;47.072;22.192;2023-02-21T16:03:42;99387.16;;;12.95;65.61
68634;BME280;55625;47.072;22.192;2023-02-21T16:11:49;99390.34;;;12.79;65.92
68634;BME280;55625;47.072;22.192;2023-02-21T16:20:36;99411.09;;;12.52;66.95
68634;BME280;55625;47.072;22.192;2023-02-21T16:23:30;99421.69;;;12.42;67.63
68634;BME280;55625;47.072;22.192;2023-02-21T16:26:21;99426.44;;;12.27;67.89
68634;BME280;55625;47.072;22.192;2023-02-21T16:28:51;99419.28;;;12.22;68.11
68634;BME280;55625;47.072;22.192;2023-02-21T16:31:28;99427.69;;;12.26;67.68
68634;BME280;55625;47.072;22.192;2023-02-21T16:33:54;99436.06;;;12.29;67.82
68634;BME280;55625;47.072;22.192;2023-02-21T16:36:27;99435.09;;;12.14;68.75
68634;BME280;55625;47.072;22.192;2023-02-21T16:38:55;99440.63;;;12.08;68.89
68634;BME280;55625;47.072;22.192;2023-02-21T16:41:22;99435.88;;;12.05;69.04
68634;BME280;55625;47.072;22.192;2023-02-21T16:43:48;99443.78;;;12.10;69.35
68634;BME280;55625;47.072;22.192;2023-02-21T16:46:15;99444.09;;;12.03;69.57
68634;BME280;55625;47.072;22.192;2023-02-21T16:48:45;99440.25;;;11.88;70.09
68634;BME280;55625;47.072;22.192;2023-02-21T16:51:12;99446.72;;;11.89;70.65